PWSweather.com
Personal Weather Stations
Station Observations
RHPWSHOR1
Lostock, BoltonGB

LostockBoltonGB

Lat: 53.58073044, Lon: -2.52344131

Elevation: 389

Station Type: Oregon Scientific WMR100

Latest ConditionsUpdated 9:38:21 PM GMT Wednesday, Aug 31, 2016
Currently Today's Max Today's Min Today's Average
Temperature 57.0°F13.9°C 67.5°F19.7°C 56.3°F13.5°C 61.0°F16.1°C
Dew Point 48.8°F9.3°C 57.7°F14.3°C 36.8°F2.7°C 48.0°F8.9°C
Winds Calm Calm 9.2 mph S14.8 kmh S - 1.7 mph 2.7 kmh
Wind Gusts -- 9.2 mph14.8 kmh - -
Humidity 74% 85% 34% 65%
Pressure 29.56 in1001.0 mb 29.56 in1001.0 mb 29.44 in997.0 mb -
Hour Temp Dew Point Humidity Winds Wind Gusts Pressure Precip Precip Rate Daily Precip Total
09:38 PM 57.0°F13.9°C 48.8°F9.3°C 74% Calm Calm -- 29.56 in1001.0 mb 0.00 in0.0 mm 0.00 in0.0 mm 0.00 in0.0 mm
09:31 PM 57.2°F14.0°C 48.6°F9.2°C 73% Calm Calm -- 29.56 in1001.0 mb 0.00 in0.0 mm 0.00 in0.0 mm 0.00 in0.0 mm
09:24 PM 57.4°F14.1°C 48.8°F9.3°C 73% Calm Calm -- 29.56 in1001.0 mb 0.00 in0.0 mm 0.00 in0.0 mm 0.00 in0.0 mm
09:17 PM 57.6°F14.2°C 49.0°F9.4°C 73% Calm Calm -- 29.56 in1001.0 mb 0.00 in0.0 mm 0.00 in0.0 mm 0.00 in0.0 mm
09:09 PM 57.6°F14.2°C 49.0°F9.4°C 73% Calm Calm -- 29.56 in1001.0 mb 0.00 in0.0 mm 0.00 in0.0 mm 0.00 in0.0 mm
09:01 PM 57.7°F14.3°C 49.2°F9.6°C 73% Calm Calm -- 29.56 in1001.0 mb 0.00 in0.0 mm 0.00 in0.0 mm 0.00 in0.0 mm
08:53 PM 57.9°F14.4°C 49.0°F9.4°C 72% Calm Calm -- 29.56 in1001.0 mb 0.00 in0.0 mm 0.00 in0.0 mm 0.00 in0.0 mm
08:44 PM 57.9°F14.4°C 49.0°F9.4°C 72% 0.9 mph S1.4 kmh S 0.9 mph1.4 kmh 29.56 in1001.0 mb 0.00 in0.0 mm 0.00 in0.0 mm 0.00 in0.0 mm
08:36 PM 58.3°F14.6°C 49.7°F9.8°C 73% Calm Calm -- 29.56 in1001.0 mb 0.00 in0.0 mm 0.00 in0.0 mm 0.00 in0.0 mm
08:28 PM 58.5°F14.7°C 49.5°F9.7°C 72% 0.9 mph SSW1.4 kmh SSW 0.9 mph1.4 kmh 29.56 in1001.0 mb 0.00 in0.0 mm 0.00 in0.0 mm 0.00 in0.0 mm
08:21 PM 58.6°F14.8°C 50.0°F10.0°C 73% 2.0 mph NNE3.2 kmh NNE 2.0 mph3.2 kmh 29.56 in1001.0 mb 0.00 in0.0 mm 0.00 in0.0 mm 0.00 in0.0 mm
08:14 PM 58.8°F14.9°C 50.2°F10.1°C 73% 1.1 mph NW1.8 kmh NW 1.1 mph1.8 kmh 29.56 in1001.0 mb 0.00 in0.0 mm 0.00 in0.0 mm 0.00 in0.0 mm
08:07 PM 58.8°F14.9°C 49.8°F9.9°C 72% 1.6 mph WSW2.6 kmh WSW 2.5 mph4.0 kmh 29.56 in1001.0 mb 0.00 in0.0 mm 0.00 in0.0 mm 0.00 in0.0 mm
08:00 PM 59.0°F15.0°C 49.6°F9.8°C 71% 2.0 mph W3.2 kmh W 2.0 mph3.2 kmh 29.56 in1001.0 mb 0.00 in0.0 mm 0.00 in0.0 mm 0.00 in0.0 mm
07:52 PM 59.2°F15.1°C 50.2°F10.1°C 72% 2.0 mph W3.2 kmh W 2.0 mph3.2 kmh 29.56 in1001.0 mb 0.00 in0.0 mm 0.00 in0.0 mm 0.00 in0.0 mm
07:46 PM 59.4°F15.2°C 50.3°F10.2°C 72% 2.0 mph W3.2 kmh W 2.0 mph3.2 kmh 29.53 in1000.0 mb 0.00 in0.0 mm 0.00 in0.0 mm 0.00 in0.0 mm
07:39 PM 59.5°F15.3°C 50.1°F10.1°C 71% 2.7 mph W4.3 kmh W 2.9 mph4.7 kmh 29.53 in1000.0 mb 0.00 in0.0 mm 0.00 in0.0 mm 0.00 in0.0 mm
07:32 PM 59.5°F15.3°C 49.8°F9.9°C 70% 2.9 mph SSE4.7 kmh SSE 2.9 mph4.7 kmh 29.53 in1000.0 mb 0.00 in0.0 mm 0.00 in0.0 mm 0.00 in0.0 mm
07:25 PM 59.7°F15.4°C 49.9°F9.9°C 70% 2.5 mph SW4.0 kmh SW 2.5 mph4.0 kmh 29.53 in1000.0 mb 0.00 in0.0 mm 0.00 in0.0 mm 0.00 in0.0 mm
07:18 PM 59.9°F15.5°C 49.7°F9.8°C 69% 2.5 mph WSW4.0 kmh WSW 2.5 mph4.0 kmh 29.53 in1000.0 mb 0.00 in0.0 mm 0.00 in0.0 mm 0.00 in0.0 mm
07:11 PM 60.1°F15.6°C 48.7°F9.3°C 66% 2.5 mph WSW4.0 kmh WSW 2.5 mph4.0 kmh 29.53 in1000.0 mb 0.00 in0.0 mm 0.00 in0.0 mm 0.00 in0.0 mm
07:04 PM 60.3°F15.7°C 48.5°F9.2°C 65% 2.5 mph WSW4.0 kmh WSW 2.5 mph4.0 kmh 29.53 in1000.0 mb 0.00 in0.0 mm 0.00 in0.0 mm 0.00 in0.0 mm
06:57 PM 60.6°F15.9°C 48.4°F9.1°C 64% 2.5 mph WSW4.0 kmh WSW 2.5 mph4.0 kmh 29.53 in1000.0 mb 0.00 in0.0 mm 0.00 in0.0 mm 0.00 in0.0 mm
06:50 PM 60.8°F16.0°C 47.7°F8.7°C 62% 2.5 mph WSW4.0 kmh WSW 2.5 mph4.0 kmh 29.53 in1000.0 mb 0.00 in0.0 mm 0.00 in0.0 mm 0.00 in0.0 mm
06:43 PM 61.0°F16.1°C 47.0°F8.3°C 60% 2.5 mph WSW4.0 kmh WSW 2.5 mph4.0 kmh 29.53 in1000.0 mb 0.00 in0.0 mm 0.00 in0.0 mm 0.00 in0.0 mm
06:35 PM 61.2°F16.2°C 46.7°F8.2°C 59% 2.5 mph WSW4.0 kmh WSW 2.5 mph4.0 kmh 29.53 in1000.0 mb 0.00 in0.0 mm 0.00 in0.0 mm 0.00 in0.0 mm
06:29 PM 61.3°F16.3°C 46.5°F8.1°C 58% 2.5 mph WSW4.0 kmh WSW 2.5 mph4.0 kmh 29.53 in1000.0 mb 0.00 in0.0 mm 0.00 in0.0 mm 0.00 in0.0 mm
06:22 PM 61.7°F16.5°C 45.4°F7.4°C 55% 2.5 mph WSW4.0 kmh WSW 2.5 mph4.0 kmh 29.53 in1000.0 mb 0.00 in0.0 mm 0.00 in0.0 mm 0.00 in0.0 mm
06:15 PM 61.9°F16.6°C 43.6°F6.4°C 51% 4.7 mph SSE7.6 kmh SSE 4.7 mph7.6 kmh 29.53 in1000.0 mb 0.00 in0.0 mm 0.00 in0.0 mm 0.00 in0.0 mm
06:08 PM 62.4°F16.9°C 41.9°F5.5°C 47% 1.3 mph WSW2.1 kmh WSW 3.6 mph5.8 kmh 29.53 in1000.0 mb 0.00 in0.0 mm 0.00 in0.0 mm 0.00 in0.0 mm
06:00 PM 63.0°F17.2°C 40.7°F4.8°C 44% 2.5 mph S4.0 kmh S 3.6 mph5.8 kmh 29.53 in1000.0 mb 0.00 in0.0 mm 0.00 in0.0 mm 0.00 in0.0 mm
05:54 PM 63.1°F17.3°C 40.3°F4.6°C 43% 3.4 mph WNW5.5 kmh WNW 4.3 mph6.9 kmh 29.53 in1000.0 mb 0.00 in0.0 mm 0.00 in0.0 mm 0.00 in0.0 mm
05:47 PM 63.3°F17.4°C 40.5°F4.7°C 43% 2.7 mph WSW4.3 kmh WSW 4.7 mph7.6 kmh 29.50 in999.0 mb 0.00 in0.0 mm 0.00 in0.0 mm 0.00 in0.0 mm
05:40 PM 63.5°F17.5°C 39.4°F4.1°C 41% 2.0 mph S3.2 kmh S 2.0 mph3.2 kmh 29.50 in999.0 mb 0.00 in0.0 mm 0.00 in0.0 mm 0.00 in0.0 mm
05:32 PM 63.5°F17.5°C 39.4°F4.1°C 41% 2.2 mph WSW3.5 kmh WSW 2.9 mph4.7 kmh 29.53 in1000.0 mb 0.00 in0.0 mm 0.00 in0.0 mm 0.00 in0.0 mm
05:26 PM 63.7°F17.6°C 38.9°F3.8°C 40% 1.3 mph ESE2.1 kmh ESE 1.3 mph2.1 kmh 29.53 in1000.0 mb 0.00 in0.0 mm 0.00 in0.0 mm 0.00 in0.0 mm
05:19 PM 63.7°F17.6°C 38.3°F3.5°C 39% 2.5 mph WNW4.0 kmh WNW 2.5 mph4.0 kmh 29.53 in1000.0 mb 0.00 in0.0 mm 0.00 in0.0 mm 0.00 in0.0 mm
05:12 PM 63.9°F17.7°C 37.8°F3.2°C 38% 3.6 mph SSW5.8 kmh SSW 3.6 mph5.8 kmh 29.53 in1000.0 mb 0.00 in0.0 mm 0.00 in0.0 mm 0.00 in0.0 mm
05:05 PM 64.0°F17.8°C 37.9°F3.3°C 38% 4.0 mph SSE6.4 kmh SSE 4.0 mph6.4 kmh 29.53 in1000.0 mb 0.00 in0.0 mm 0.00 in0.0 mm 0.00 in0.0 mm
04:58 PM 64.2°F17.9°C 37.4°F3.0°C 37% 2.5 mph WSW4.0 kmh WSW 2.5 mph4.0 kmh 29.53 in1000.0 mb 0.00 in0.0 mm 0.00 in0.0 mm 0.00 in0.0 mm
04:51 PM 64.2°F17.9°C 37.4°F3.0°C 37% 3.1 mph SSE5.0 kmh SSE 3.1 mph5.0 kmh 29.53 in1000.0 mb 0.00 in0.0 mm 0.00 in0.0 mm 0.00 in0.0 mm
04:44 PM 64.4°F18.0°C 36.9°F2.7°C 36% 6.0 mph ESE9.7 kmh ESE 6.0 mph9.7 kmh 29.50 in999.0 mb 0.00 in0.0 mm 0.00 in0.0 mm 0.00 in0.0 mm
04:37 PM 64.4°F18.0°C 36.9°F2.7°C 36% 3.4 mph SW5.5 kmh SW 3.4 mph5.5 kmh 29.50 in999.0 mb 0.00 in0.0 mm 0.00 in0.0 mm 0.00 in0.0 mm
04:30 PM 64.4°F18.0°C 36.9°F2.7°C 36% 2.7 mph SSW4.3 kmh SSW 5.4 mph8.7 kmh 29.53 in1000.0 mb 0.00 in0.0 mm 0.00 in0.0 mm 0.00 in0.0 mm
04:23 PM 64.8°F18.2°C 37.2°F2.9°C 36% 2.9 mph SSE4.7 kmh SSE 2.9 mph4.7 kmh 29.53 in1000.0 mb 0.00 in0.0 mm 0.00 in0.0 mm 0.00 in0.0 mm
04:16 PM 64.9°F18.3°C 37.4°F3.0°C 36% 2.9 mph SSW4.7 kmh SSW 3.8 mph6.1 kmh 29.53 in1000.0 mb 0.00 in0.0 mm 0.00 in0.0 mm 0.00 in0.0 mm
04:09 PM 65.3°F18.5°C 37.7°F3.2°C 36% 3.4 mph NNW5.5 kmh NNW 3.4 mph5.5 kmh 29.53 in1000.0 mb 0.00 in0.0 mm 0.00 in0.0 mm 0.00 in0.0 mm
04:02 PM 65.1°F18.4°C 36.8°F2.7°C 35% 3.6 mph NNW5.8 kmh NNW 3.8 mph6.1 kmh 29.50 in999.0 mb 0.00 in0.0 mm 0.00 in0.0 mm 0.00 in0.0 mm
03:55 PM 65.5°F18.6°C 37.1°F2.8°C 35% 2.5 mph S4.0 kmh S 2.5 mph4.0 kmh 29.50 in999.0 mb 0.00 in0.0 mm 0.00 in0.0 mm 0.00 in0.0 mm
03:48 PM 65.7°F18.7°C 37.3°F2.9°C 35% 5.4 mph SSW8.7 kmh SSW 5.4 mph8.7 kmh 29.53 in1000.0 mb 0.00 in0.0 mm 0.00 in0.0 mm 0.00 in0.0 mm
03:41 PM 65.7°F18.7°C 37.3°F2.9°C 35% 4.0 mph SSW6.4 kmh SSW 4.0 mph6.4 kmh 29.53 in1000.0 mb 0.00 in0.0 mm 0.00 in0.0 mm 0.00 in0.0 mm
03:34 PM 66.0°F18.9°C 38.3°F3.5°C 36% 4.0 mph SSW6.4 kmh SSW 4.0 mph6.4 kmh 29.53 in1000.0 mb 0.00 in0.0 mm 0.00 in0.0 mm 0.00 in0.0 mm
03:27 PM 66.2°F19.0°C 39.2°F4.0°C 37% 2.9 mph NNW4.7 kmh NNW 2.9 mph4.7 kmh 29.50 in999.0 mb 0.00 in0.0 mm 0.00 in0.0 mm 0.00 in0.0 mm
03:20 PM 65.8°F18.8°C 39.6°F4.2°C 38% 3.4 mph SSW5.5 kmh SSW 3.4 mph5.5 kmh 29.50 in999.0 mb 0.00 in0.0 mm 0.00 in0.0 mm 0.00 in0.0 mm
03:13 PM 65.5°F18.6°C 39.9°F4.4°C 39% 3.1 mph ESE5.0 kmh ESE 3.1 mph5.0 kmh 29.53 in1000.0 mb 0.00 in0.0 mm 0.00 in0.0 mm 0.00 in0.0 mm
03:05 PM 65.5°F18.6°C 39.9°F4.4°C 39% 3.4 mph NW5.5 kmh NW 3.8 mph6.1 kmh 29.53 in1000.0 mb 0.00 in0.0 mm 0.00 in0.0 mm 0.00 in0.0 mm
02:59 PM 65.1°F18.4°C 38.9°F3.8°C 38% 3.8 mph WNW6.1 kmh WNW 3.8 mph6.1 kmh 29.50 in999.0 mb 0.00 in0.0 mm 0.00 in0.0 mm 0.00 in0.0 mm
02:52 PM 65.5°F18.6°C 38.6°F3.7°C 37% 3.8 mph ENE6.1 kmh ENE 4.0 mph6.4 kmh 29.50 in999.0 mb 0.00 in0.0 mm 0.00 in0.0 mm 0.00 in0.0 mm
02:45 PM 66.2°F19.0°C 37.8°F3.2°C 35% 4.7 mph WNW7.6 kmh WNW 4.7 mph7.6 kmh 29.53 in1000.0 mb 0.00 in0.0 mm 0.00 in0.0 mm 0.00 in0.0 mm
02:38 PM 66.2°F19.0°C 37.0°F2.8°C 34% 2.5 mph NNE4.0 kmh NNE 4.0 mph6.4 kmh 29.53 in1000.0 mb 0.00 in0.0 mm 0.00 in0.0 mm 0.00 in0.0 mm
02:31 PM 66.0°F18.9°C 36.9°F2.7°C 34% 3.1 mph WSW5.0 kmh WSW 4.3 mph6.9 kmh 29.50 in999.0 mb 0.00 in0.0 mm 0.00 in0.0 mm 0.00 in0.0 mm
02:24 PM 66.4°F19.1°C 37.2°F2.9°C 34% 4.3 mph ESE6.9 kmh ESE 4.3 mph6.9 kmh 29.50 in999.0 mb 0.00 in0.0 mm 0.00 in0.0 mm 0.00 in0.0 mm
02:17 PM 66.2°F19.0°C 37.0°F2.8°C 34% 3.8 mph WSW6.1 kmh WSW 3.8 mph6.1 kmh 29.50 in999.0 mb 0.00 in0.0 mm 0.00 in0.0 mm 0.00 in0.0 mm
02:10 PM 66.2°F19.0°C 37.0°F2.8°C 34% 3.4 mph NNE5.5 kmh NNE 3.8 mph6.1 kmh 29.50 in999.0 mb 0.00 in0.0 mm 0.00 in0.0 mm 0.00 in0.0 mm
02:03 PM 66.4°F19.1°C 37.9°F3.3°C 35% 3.8 mph WSW6.1 kmh WSW 5.8 mph9.3 kmh 29.50 in999.0 mb 0.00 in0.0 mm 0.00 in0.0 mm 0.00 in0.0 mm
01:56 PM 66.7°F19.3°C 39.0°F3.9°C 36% 4.3 mph WNW6.9 kmh WNW 4.3 mph6.9 kmh 29.50 in999.0 mb 0.00 in0.0 mm 0.00 in0.0 mm 0.00 in0.0 mm
01:49 PM 66.7°F19.3°C 39.0°F3.9°C 36% 3.6 mph WSW5.8 kmh WSW 3.6 mph5.8 kmh 29.50 in999.0 mb 0.00 in0.0 mm 0.00 in0.0 mm 0.00 in0.0 mm
01:42 PM 66.6°F19.2°C 38.8°F3.8°C 36% 2.9 mph WNW4.7 kmh WNW 2.9 mph4.7 kmh 29.50 in999.0 mb 0.00 in0.0 mm 0.00 in0.0 mm 0.00 in0.0 mm
01:35 PM 67.5°F19.7°C 40.3°F4.6°C 37% 5.6 mph WSW9.0 kmh WSW 5.6 mph9.0 kmh 29.50 in999.0 mb 0.00 in0.0 mm 0.00 in0.0 mm 0.00 in0.0 mm
01:28 PM 66.9°F19.4°C 41.2°F5.1°C 39% 3.6 mph SSW5.8 kmh SSW 3.6 mph5.8 kmh 29.50 in999.0 mb 0.00 in0.0 mm 0.00 in0.0 mm 0.00 in0.0 mm
01:21 PM 66.2°F19.0°C 39.2°F4.0°C 37% 3.8 mph WNW6.1 kmh WNW 3.8 mph6.1 kmh 29.50 in999.0 mb 0.00 in0.0 mm 0.00 in0.0 mm 0.00 in0.0 mm
01:14 PM 66.6°F19.2°C 40.2°F4.6°C 38% 4.0 mph W6.4 kmh W 4.0 mph6.4 kmh 29.50 in999.0 mb 0.00 in0.0 mm 0.00 in0.0 mm 0.00 in0.0 mm
01:07 PM 66.4°F19.1°C 40.7°F4.8°C 39% 2.9 mph WNW4.7 kmh WNW 2.9 mph4.7 kmh 29.50 in999.0 mb 0.00 in0.0 mm 0.00 in0.0 mm 0.00 in0.0 mm
01:00 PM 66.2°F19.0°C 41.8°F5.4°C 41% 9.2 mph S14.8 kmh S 9.2 mph14.8 kmh 29.50 in999.0 mb 0.00 in0.0 mm 0.00 in0.0 mm 0.00 in0.0 mm
12:53 PM 65.7°F18.7°C 42.0°F5.6°C 42% 3.6 mph S5.8 kmh S 4.3 mph6.9 kmh 29.50 in999.0 mb 0.00 in0.0 mm 0.00 in0.0 mm 0.00 in0.0 mm
12:46 PM 65.8°F18.8°C 43.9°F6.6°C 45% 3.4 mph NNE5.5 kmh NNE 3.4 mph5.5 kmh 29.50 in999.0 mb 0.00 in0.0 mm 0.00 in0.0 mm 0.00 in0.0 mm
12:39 PM 65.1°F18.4°C 43.3°F6.3°C 45% 2.0 mph W3.2 kmh W 2.0 mph3.2 kmh 29.50 in999.0 mb 0.00 in0.0 mm 0.00 in0.0 mm 0.00 in0.0 mm
12:32 PM 65.3°F18.5°C 44.0°F6.7°C 46% 3.1 mph S5.0 kmh S 3.1 mph5.0 kmh 29.50 in999.0 mb 0.00 in0.0 mm 0.00 in0.0 mm 0.00 in0.0 mm
12:25 PM 64.8°F18.2°C 43.5°F6.4°C 46% 5.6 mph W9.0 kmh W 5.6 mph9.0 kmh 29.50 in999.0 mb 0.00 in0.0 mm 0.00 in0.0 mm 0.00 in0.0 mm
12:18 PM 64.2°F17.9°C 41.9°F5.5°C 44% 2.0 mph NNW3.2 kmh NNW 2.5 mph4.0 kmh 29.47 in998.0 mb 0.00 in0.0 mm 0.00 in0.0 mm 0.00 in0.0 mm
12:11 PM 65.1°F18.4°C 44.4°F6.9°C 47% 5.8 mph SW9.3 kmh SW 5.8 mph9.3 kmh 29.47 in998.0 mb 0.00 in0.0 mm 0.00 in0.0 mm 0.00 in0.0 mm
12:04 PM 65.1°F18.4°C 44.4°F6.9°C 47% 2.9 mph NNE4.7 kmh NNE 3.6 mph5.8 kmh 29.47 in998.0 mb 0.00 in0.0 mm 0.00 in0.0 mm 0.00 in0.0 mm
11:57 AM 64.4°F18.0°C 43.8°F6.6°C 47% 2.7 mph W4.3 kmh W 2.7 mph4.3 kmh 29.50 in999.0 mb 0.00 in0.0 mm 0.00 in0.0 mm 0.00 in0.0 mm
11:50 AM 64.4°F18.0°C 45.4°F7.4°C 50% 2.9 mph ENE4.7 kmh ENE 2.9 mph4.7 kmh 29.50 in999.0 mb 0.00 in0.0 mm 0.00 in0.0 mm 0.00 in0.0 mm
11:43 AM 64.9°F18.3°C 48.4°F9.1°C 55% 3.6 mph WNW5.8 kmh WNW 4.3 mph6.9 kmh 29.47 in998.0 mb 0.00 in0.0 mm 0.00 in0.0 mm 0.00 in0.0 mm
11:36 AM 64.4°F18.0°C 49.8°F9.9°C 59% 2.7 mph SSW4.3 kmh SSW 4.0 mph6.4 kmh 29.47 in998.0 mb 0.00 in0.0 mm 0.00 in0.0 mm 0.00 in0.0 mm
11:29 AM 63.7°F17.6°C 50.4°F10.2°C 62% 3.6 mph WNW5.8 kmh WNW 3.6 mph5.8 kmh 29.47 in998.0 mb 0.00 in0.0 mm 0.00 in0.0 mm 0.00 in0.0 mm
11:22 AM 63.5°F17.5°C 52.0°F11.1°C 66% 6.0 mph SSW9.7 kmh SSW 6.0 mph9.7 kmh 29.47 in998.0 mb 0.00 in0.0 mm 0.00 in0.0 mm 0.00 in0.0 mm
11:15 AM 63.5°F17.5°C 53.2°F11.8°C 69% 1.6 mph WNW2.6 kmh WNW 4.7 mph7.6 kmh 29.47 in998.0 mb 0.00 in0.0 mm 0.00 in0.0 mm 0.00 in0.0 mm
11:08 AM 63.1°F17.3°C 54.0°F12.2°C 72% 2.0 mph ENE3.2 kmh ENE 2.0 mph3.2 kmh 29.47 in998.0 mb 0.00 in0.0 mm 0.00 in0.0 mm 0.00 in0.0 mm
11:01 AM 62.6°F17.0°C 54.6°F12.6°C 75% 2.9 mph NE4.7 kmh NE 2.9 mph4.7 kmh 29.47 in998.0 mb 0.00 in0.0 mm 0.00 in0.0 mm 0.00 in0.0 mm
10:54 AM 62.4°F16.9°C 54.8°F12.7°C 76% 3.1 mph S5.0 kmh S 3.1 mph5.0 kmh 29.47 in998.0 mb 0.00 in0.0 mm 0.00 in0.0 mm 0.00 in0.0 mm
10:46 AM 62.2°F16.8°C 56.0°F13.3°C 80% 4.3 mph S6.9 kmh S 4.3 mph6.9 kmh 29.47 in998.0 mb 0.00 in0.0 mm 0.00 in0.0 mm 0.00 in0.0 mm
10:40 AM 61.7°F16.5°C 55.1°F12.8°C 79% 2.9 mph WNW4.7 kmh WNW 2.9 mph4.7 kmh 29.47 in998.0 mb 0.00 in0.0 mm 0.00 in0.0 mm 0.00 in0.0 mm
10:33 AM 61.9°F16.6°C 55.3°F12.9°C 79% 4.3 mph WNW6.9 kmh WNW 4.9 mph7.9 kmh 29.47 in998.0 mb 0.00 in0.0 mm 0.00 in0.0 mm 0.00 in0.0 mm
10:26 AM 62.2°F16.8°C 55.0°F12.8°C 77% 3.6 mph WSW5.8 kmh WSW 3.6 mph5.8 kmh 29.47 in998.0 mb 0.00 in0.0 mm 0.00 in0.0 mm 0.00 in0.0 mm
10:19 AM 62.6°F17.0°C 54.9°F12.7°C 76% Calm Calm 2.0 mph3.2 kmh 29.47 in998.0 mb 0.00 in0.0 mm 0.00 in0.0 mm 0.00 in0.0 mm
10:12 AM 62.8°F17.1°C 55.1°F12.8°C 76% 2.7 mph SSE4.3 kmh SSE 2.7 mph4.3 kmh 29.47 in998.0 mb 0.00 in0.0 mm 0.00 in0.0 mm 0.00 in0.0 mm
10:05 AM 63.0°F17.2°C 55.7°F13.2°C 77% 1.3 mph S2.1 kmh S 1.3 mph2.1 kmh 29.47 in998.0 mb 0.00 in0.0 mm 0.00 in0.0 mm 0.00 in0.0 mm
09:58 AM 63.0°F17.2°C 56.0°F13.3°C 78% 0.9 mph SSW1.4 kmh SSW 1.1 mph1.8 kmh 29.47 in998.0 mb 0.00 in0.0 mm 0.00 in0.0 mm 0.00 in0.0 mm
09:51 AM 63.1°F17.3°C 56.5°F13.6°C 79% 1.1 mph SSW1.8 kmh SSW 1.6 mph2.6 kmh 29.47 in998.0 mb 0.00 in0.0 mm 0.00 in0.0 mm 0.00 in0.0 mm
09:44 AM 63.1°F17.3°C 56.9°F13.8°C 80% Calm Calm 1.3 mph2.1 kmh 29.44 in997.0 mb 0.00 in0.0 mm 0.00 in0.0 mm 0.00 in0.0 mm
09:37 AM 63.0°F17.2°C 57.1°F13.9°C 81% 1.1 mph NNW1.8 kmh NNW 1.1 mph1.8 kmh 29.44 in997.0 mb 0.00 in0.0 mm 0.00 in0.0 mm 0.00 in0.0 mm
09:30 AM 62.8°F17.1°C 56.9°F13.8°C 81% 1.3 mph NNW2.1 kmh NNW 1.3 mph2.1 kmh 29.44 in997.0 mb 0.00 in0.0 mm 0.00 in0.0 mm 0.00 in0.0 mm
09:23 AM 62.4°F16.9°C 56.5°F13.6°C 81% Calm Calm -- 29.44 in997.0 mb 0.00 in0.0 mm 0.00 in0.0 mm 0.00 in0.0 mm
09:16 AM 62.6°F17.0°C 57.0°F13.9°C 82% 1.6 mph WNW2.6 kmh WNW 2.0 mph3.2 kmh 29.44 in997.0 mb 0.00 in0.0 mm 0.00 in0.0 mm 0.00 in0.0 mm
09:09 AM 62.4°F16.9°C 57.2°F14.0°C 83% Calm Calm -- 29.44 in997.0 mb 0.00 in0.0 mm 0.00 in0.0 mm 0.00 in0.0 mm
09:02 AM 62.2°F16.8°C 57.7°F14.3°C 85% 0.9 mph NNE1.4 kmh NNE 0.9 mph1.4 kmh 29.44 in997.0 mb 0.00 in0.0 mm 0.00 in0.0 mm 0.00 in0.0 mm
08:55 AM 61.5°F16.4°C 56.3°F13.5°C 83% Calm Calm 0.9 mph1.4 kmh 29.44 in997.0 mb 0.00 in0.0 mm 0.00 in0.0 mm 0.00 in0.0 mm
08:48 AM 61.2°F16.2°C 56.0°F13.3°C 83% Calm Calm -- 29.44 in997.0 mb 0.00 in0.0 mm 0.00 in0.0 mm 0.00 in0.0 mm
08:41 AM 61.0°F16.1°C 55.8°F13.2°C 83% 1.1 mph NNW1.8 kmh NNW 1.1 mph1.8 kmh 29.44 in997.0 mb 0.00 in0.0 mm 0.00 in0.0 mm 0.00 in0.0 mm
08:34 AM 60.6°F15.9°C 55.4°F13.0°C 83% 2.5 mph NNE4.0 kmh NNE 2.5 mph4.0 kmh 29.44 in997.0 mb 0.00 in0.0 mm 0.00 in0.0 mm 0.00 in0.0 mm
08:27 AM 60.4°F15.8°C 55.3°F12.9°C 83% 1.1 mph W1.8 kmh W 1.1 mph1.8 kmh 29.44 in997.0 mb 0.00 in0.0 mm 0.00 in0.0 mm 0.00 in0.0 mm
08:20 AM 60.3°F15.7°C 55.1°F12.8°C 83% 1.3 mph NNE2.1 kmh NNE 1.3 mph2.1 kmh 29.44 in997.0 mb 0.00 in0.0 mm 0.00 in0.0 mm 0.00 in0.0 mm
08:12 AM 60.1°F15.6°C 54.9°F12.7°C 83% 1.1 mph NNE1.8 kmh NNE 1.1 mph1.8 kmh 29.47 in998.0 mb 0.00 in0.0 mm 0.00 in0.0 mm 0.00 in0.0 mm
08:06 AM 59.9°F15.5°C 54.4°F12.4°C 82% 1.6 mph NNW2.6 kmh NNW 1.6 mph2.6 kmh 29.47 in998.0 mb 0.00 in0.0 mm 0.00 in0.0 mm 0.00 in0.0 mm
07:59 AM 59.7°F15.4°C 54.2°F12.3°C 82% 1.6 mph NE2.6 kmh NE 1.6 mph2.6 kmh 29.44 in997.0 mb 0.00 in0.0 mm 0.00 in0.0 mm 0.00 in0.0 mm
07:52 AM 59.5°F15.3°C 54.1°F12.3°C 82% Calm Calm -- 29.44 in997.0 mb 0.00 in0.0 mm 0.00 in0.0 mm 0.00 in0.0 mm
07:45 AM 59.5°F15.3°C 53.7°F12.1°C 81% 2.0 mph NNE3.2 kmh NNE 2.0 mph3.2 kmh 29.44 in997.0 mb 0.00 in0.0 mm 0.00 in0.0 mm 0.00 in0.0 mm
07:38 AM 59.5°F15.3°C 54.1°F12.3°C 82% Calm Calm -- 29.44 in997.0 mb 0.00 in0.0 mm 0.00 in0.0 mm 0.00 in0.0 mm
07:31 AM 59.4°F15.2°C 53.9°F12.2°C 82% Calm Calm -- 29.44 in997.0 mb 0.00 in0.0 mm 0.00 in0.0 mm 0.00 in0.0 mm
07:24 AM 59.2°F15.1°C 53.7°F12.1°C 82% 0.9 mph NNE1.4 kmh NNE 0.9 mph1.4 kmh 29.44 in997.0 mb 0.00 in0.0 mm 0.00 in0.0 mm 0.00 in0.0 mm
07:17 AM 59.0°F15.0°C 53.2°F11.8°C 81% Calm Calm -- 29.44 in997.0 mb 0.00 in0.0 mm 0.00 in0.0 mm 0.00 in0.0 mm
07:10 AM 58.8°F14.9°C 53.0°F11.7°C 81% Calm Calm -- 29.44 in997.0 mb 0.00 in0.0 mm 0.00 in0.0 mm 0.00 in0.0 mm
07:03 AM 58.6°F14.8°C 52.8°F11.6°C 81% Calm Calm -- 29.44 in997.0 mb 0.00 in0.0 mm 0.00 in0.0 mm 0.00 in0.0 mm
06:56 AM 58.6°F14.8°C 52.8°F11.6°C 81% 1.3 mph 2.1 kmh 1.3 mph2.1 kmh 29.44 in997.0 mb 0.00 in0.0 mm 0.00 in0.0 mm 0.00 in0.0 mm
06:49 AM 58.5°F14.7°C 52.7°F11.5°C 81% Calm Calm -- 29.44 in997.0 mb 0.00 in0.0 mm 0.00 in0.0 mm 0.00 in0.0 mm
06:42 AM 58.3°F14.6°C 52.2°F11.2°C 80% 1.1 mph NNE1.8 kmh NNE 1.1 mph1.8 kmh 29.44 in997.0 mb 0.00 in0.0 mm 0.00 in0.0 mm 0.00 in0.0 mm
06:35 AM 58.3°F14.6°C 52.2°F11.2°C 80% 2.0 mph NNE3.2 kmh NNE 2.0 mph3.2 kmh 29.44 in997.0 mb 0.00 in0.0 mm 0.00 in0.0 mm 0.00 in0.0 mm
06:28 AM 58.3°F14.6°C 52.2°F11.2°C 80% Calm Calm -- 29.44 in997.0 mb 0.00 in0.0 mm 0.00 in0.0 mm 0.00 in0.0 mm
06:21 AM 58.3°F14.6°C 51.8°F11.0°C 79% Calm Calm -- 29.44 in997.0 mb 0.00 in0.0 mm 0.00 in0.0 mm 0.00 in0.0 mm
06:14 AM 58.1°F14.5°C 52.0°F11.1°C 80% Calm Calm -- 29.44 in997.0 mb 0.00 in0.0 mm 0.00 in0.0 mm 0.00 in0.0 mm
06:07 AM 58.1°F14.5°C 52.0°F11.1°C 80% Calm Calm -- 29.44 in997.0 mb 0.00 in0.0 mm 0.00 in0.0 mm 0.00 in0.0 mm
06:00 AM 58.1°F14.5°C 52.0°F11.1°C 80% Calm Calm -- 29.44 in997.0 mb 0.00 in0.0 mm 0.00 in0.0 mm 0.00 in0.0 mm
05:53 AM 57.9°F14.4°C 51.5°F10.8°C 79% Calm Calm -- 29.44 in997.0 mb 0.00 in0.0 mm 0.00 in0.0 mm 0.00 in0.0 mm
05:46 AM 57.9°F14.4°C 51.5°F10.8°C 79% Calm Calm -- 29.47 in998.0 mb 0.00 in0.0 mm 0.00 in0.0 mm 0.00 in0.0 mm
05:39 AM 57.9°F14.4°C 51.5°F10.8°C 79% Calm Calm -- 29.47 in998.0 mb 0.00 in0.0 mm 0.00 in0.0 mm 0.00 in0.0 mm
05:32 AM 57.7°F14.3°C 51.3°F10.7°C 79% Calm Calm -- 29.47 in998.0 mb 0.00 in0.0 mm 0.00 in0.0 mm 0.00 in0.0 mm
05:25 AM 57.7°F14.3°C 51.3°F10.7°C 79% Calm Calm -- 29.47 in998.0 mb 0.00 in0.0 mm 0.00 in0.0 mm 0.00 in0.0 mm
05:18 AM 57.7°F14.3°C 51.3°F10.7°C 79% Calm Calm -- 29.44 in997.0 mb 0.00 in0.0 mm 0.00 in0.0 mm 0.00 in0.0 mm
05:11 AM 57.7°F14.3°C 51.3°F10.7°C 79% Calm Calm -- 29.44 in997.0 mb 0.00 in0.0 mm 0.00 in0.0 mm 0.00 in0.0 mm
05:03 AM 57.7°F14.3°C 51.3°F10.7°C 79% Calm Calm -- 29.47 in998.0 mb 0.00 in0.0 mm 0.00 in0.0 mm 0.00 in0.0 mm
04:57 AM 57.7°F14.3°C 51.3°F10.7°C 79% Calm Calm -- 29.47 in998.0 mb 0.00 in0.0 mm 0.00 in0.0 mm 0.00 in0.0 mm
04:50 AM 57.7°F14.3°C 51.3°F10.7°C 79% Calm Calm -- 29.47 in998.0 mb 0.00 in0.0 mm 0.00 in0.0 mm 0.00 in0.0 mm
04:43 AM 57.7°F14.3°C 51.3°F10.7°C 79% Calm Calm -- 29.47 in998.0 mb 0.00 in0.0 mm 0.00 in0.0 mm 0.00 in0.0 mm
04:36 AM 57.7°F14.3°C 51.3°F10.7°C 79% Calm Calm -- 29.47 in998.0 mb 0.00 in0.0 mm 0.00 in0.0 mm 0.00 in0.0 mm
04:29 AM 57.7°F14.3°C 51.3°F10.7°C 79% Calm Calm -- 29.47 in998.0 mb 0.00 in0.0 mm 0.00 in0.0 mm 0.00 in0.0 mm
04:22 AM 57.7°F14.3°C 51.3°F10.7°C 79% Calm Calm -- 29.47 in998.0 mb 0.00 in0.0 mm 0.00 in0.0 mm 0.00 in0.0 mm
04:14 AM 57.7°F14.3°C 51.3°F10.7°C 79% Calm Calm -- 29.47 in998.0 mb 0.00 in0.0 mm 0.00 in0.0 mm 0.00 in0.0 mm
04:08 AM 57.7°F14.3°C 51.3°F10.7°C 79% Calm Calm -- 29.47 in998.0 mb 0.00 in0.0 mm 0.00 in0.0 mm 0.00 in0.0 mm
04:01 AM 57.7°F14.3°C 51.6°F10.9°C 80% Calm Calm -- 29.47 in998.0 mb 0.00 in0.0 mm 0.00 in0.0 mm 0.00 in0.0 mm
03:54 AM 57.7°F14.3°C 51.6°F10.9°C 80% Calm Calm -- 29.47 in998.0 mb 0.00 in0.0 mm 0.00 in0.0 mm 0.00 in0.0 mm
03:47 AM 57.7°F14.3°C 51.6°F10.9°C 80% Calm Calm -- 29.47 in998.0 mb 0.00 in0.0 mm 0.00 in0.0 mm 0.00 in0.0 mm
03:40 AM 57.7°F14.3°C 51.6°F10.9°C 80% Calm Calm -- 29.47 in998.0 mb 0.00 in0.0 mm 0.00 in0.0 mm 0.00 in0.0 mm
03:33 AM 57.7°F14.3°C 51.6°F10.9°C 80% Calm Calm -- 29.47 in998.0 mb 0.00 in0.0 mm 0.00 in0.0 mm 0.00 in0.0 mm
03:26 AM 57.6°F14.2°C 51.5°F10.8°C 80% Calm Calm -- 29.47 in998.0 mb 0.00 in0.0 mm 0.00 in0.0 mm 0.00 in0.0 mm
03:18 AM 57.6°F14.2°C 51.5°F10.8°C 80% Calm Calm -- 29.47 in998.0 mb 0.00 in0.0 mm 0.00 in0.0 mm 0.00 in0.0 mm
03:12 AM 57.6°F14.2°C 51.5°F10.8°C 80% Calm Calm -- 29.47 in998.0 mb 0.00 in0.0 mm 0.00 in0.0 mm 0.00 in0.0 mm
03:05 AM 57.6°F14.2°C 51.5°F10.8°C 80% Calm Calm -- 29.47 in998.0 mb 0.00 in0.0 mm 0.00 in0.0 mm 0.00 in0.0 mm
02:58 AM 57.4°F14.1°C 51.3°F10.7°C 80% Calm Calm -- 29.47 in998.0 mb 0.00 in0.0 mm 0.00 in0.0 mm 0.00 in0.0 mm
02:51 AM 57.4°F14.1°C 51.3°F10.7°C 80% Calm Calm -- 29.47 in998.0 mb 0.00 in0.0 mm 0.00 in0.0 mm 0.00 in0.0 mm
02:44 AM 57.4°F14.1°C 51.6°F10.9°C 81% Calm Calm -- 29.50 in999.0 mb 0.00 in0.0 mm 0.00 in0.0 mm 0.00 in0.0 mm
02:37 AM 57.2°F14.0°C 51.4°F10.8°C 81% Calm Calm -- 29.50 in999.0 mb 0.00 in0.0 mm 0.00 in0.0 mm 0.00 in0.0 mm
02:30 AM 57.0°F13.9°C 51.3°F10.7°C 81% Calm Calm -- 29.50 in999.0 mb 0.00 in0.0 mm 0.00 in0.0 mm 0.00 in0.0 mm
02:23 AM 56.8°F13.8°C 51.1°F10.6°C 81% Calm Calm -- 29.50 in999.0 mb 0.00 in0.0 mm 0.00 in0.0 mm 0.00 in0.0 mm
02:16 AM 56.7°F13.7°C 50.6°F10.3°C 80% Calm Calm -- 29.50 in999.0 mb 0.00 in0.0 mm 0.00 in0.0 mm 0.00 in0.0 mm
02:09 AM 56.3°F13.5°C 49.9°F9.9°C 79% Calm Calm -- 29.50 in999.0 mb 0.00 in0.0 mm 0.00 in0.0 mm 0.00 in0.0 mm
02:02 AM 56.3°F13.5°C 49.5°F9.7°C 78% Calm Calm -- 29.50 in999.0 mb 0.00 in0.0 mm 0.00 in0.0 mm 0.00 in0.0 mm
01:55 AM 56.5°F13.6°C 49.7°F9.8°C 78% Calm Calm -- 29.50 in999.0 mb 0.00 in0.0 mm 0.00 in0.0 mm 0.00 in0.0 mm
01:48 AM 56.7°F13.7°C 49.9°F9.9°C 78% Calm Calm -- 29.50 in999.0 mb 0.00 in0.0 mm 0.00 in0.0 mm 0.00 in0.0 mm
01:40 AM 56.7°F13.7°C 49.9°F9.9°C 78% Calm Calm -- 29.50 in999.0 mb 0.00 in0.0 mm 0.00 in0.0 mm 0.00 in0.0 mm
01:34 AM 56.7°F13.7°C 49.5°F9.7°C 77% Calm Calm -- 29.50 in999.0 mb 0.00 in0.0 mm 0.00 in0.0 mm 0.00 in0.0 mm
01:27 AM 56.7°F13.7°C 49.5°F9.7°C 77% Calm Calm -- 29.50 in999.0 mb 0.00 in0.0 mm 0.00 in0.0 mm 0.00 in0.0 mm
01:20 AM 56.8°F13.8°C 49.7°F9.8°C 77% Calm Calm -- 29.50 in999.0 mb 0.00 in0.0 mm 0.00 in0.0 mm 0.00 in0.0 mm
01:13 AM 56.8°F13.8°C 49.4°F9.7°C 76% Calm Calm -- 29.50 in999.0 mb 0.00 in0.0 mm 0.00 in0.0 mm 0.00 in0.0 mm
01:06 AM 56.8°F13.8°C 49.4°F9.7°C 76% Calm Calm -- 29.50 in999.0 mb 0.00 in0.0 mm 0.00 in0.0 mm 0.00 in0.0 mm
12:59 AM 57.2°F14.0°C 49.7°F9.8°C 76% Calm Calm -- 29.50 in999.0 mb 0.00 in0.0 mm 0.00 in0.0 mm 0.00 in0.0 mm
12:52 AM 57.2°F14.0°C 49.4°F9.7°C 75% Calm Calm -- 29.50 in999.0 mb 0.00 in0.0 mm 0.00 in0.0 mm 0.00 in0.0 mm
12:45 AM 57.4°F14.1°C 49.2°F9.6°C 74% Calm Calm -- 29.50 in999.0 mb 0.00 in0.0 mm 0.00 in0.0 mm 0.00 in0.0 mm
12:38 AM 57.6°F14.2°C 49.4°F9.7°C 74% Calm Calm -- 29.50 in999.0 mb 0.00 in0.0 mm 0.00 in0.0 mm 0.00 in0.0 mm
12:31 AM 57.9°F14.4°C 49.7°F9.8°C 74% Calm Calm -- 29.50 in999.0 mb 0.00 in0.0 mm 0.00 in0.0 mm 0.00 in0.0 mm
12:24 AM 58.1°F14.5°C 49.9°F9.9°C 74% Calm Calm -- 29.50 in999.0 mb 0.00 in0.0 mm 0.00 in0.0 mm 0.00 in0.0 mm
12:16 AM 58.1°F14.5°C 49.9°F9.9°C 74% Calm Calm -- 29.53 in1000.0 mb 0.00 in0.0 mm 0.00 in0.0 mm 0.00 in0.0 mm
12:10 AM 58.3°F14.6°C 49.7°F9.8°C 73% Calm Calm -- 29.53 in1000.0 mb 0.00 in0.0 mm 0.00 in0.0 mm 0.00 in0.0 mm
12:03 AM 58.3°F14.6°C 49.7°F9.8°C 73% Calm Calm -- 29.53 in1000.0 mb 0.00 in0.0 mm 0.00 in0.0 mm 0.00 in0.0 mm